Time;durP1;ratioP1;P1;durP2;ratioP2;P2;SDS_P1;SDS_P2;PMS_P1;PMS_P2;Temp;Humidity;BMP_temperature;BMP_pressure;BME280_temperature;BME280_humidity;BME280_pressure;Samples;Min_cycle;Max_cycle;Signal;HPM_P1;HPM_P2
2023/12/22 00:01:19;;;;;;;7.20;3.90;;;;;;;6.32;90.40;97203.05;178005;1257;43930;-85
2023/12/22 00:05:22;;;;;;;15.20;4.10;;;;;;;6.37;88.14;97197.26;177965;1260;46213;-85
2023/12/22 00:09:25;;;;;;;4.70;2.60;;;;;;;6.41;87.84;97201.77;178065;1257;46339;-86
2023/12/22 00:13:28;;;;;;;12.10;4.30;;;;;;;6.42;87.86;97226.96;178443;1257;59336;-85
2023/12/22 00:17:32;;;;;;;17.30;4.30;;;;;;;6.41;89.59;97233.53;178518;1257;46240;-86
2023/12/22 00:21:35;;;;;;;5.30;2.10;;;;;;;6.24;95.38;97240.04;178442;1258;44194;-85
2023/12/22 00:25:39;;;;;;;13.30;1.40;;;;;;;6.01;96.75;97232.45;177865;1257;45996;-86
2023/12/22 00:29:42;;;;;;;4.90;1.80;;;;;;;5.76;98.70;97242.08;177649;1256;46083;-85
2023/12/22 00:33:45;;;;;;;10.50;2.70;;;;;;;5.60;99.91;97251.92;177881;1257;58676;-86
2023/12/22 00:37:48;;;;;;;14.80;3.30;;;;;;;5.48;100.00;97254.68;177950;1256;46101;-86
2023/12/22 00:41:52;;;;;;;6.50;2.80;;;;;;;5.44;100.00;97267.41;177646;1257;46096;-84
2023/12/22 00:45:57;;;;;;;8.50;2.90;;;;;;;5.46;100.00;97247.63;177465;1260;46127;-85
2023/12/22 00:50:00;;;;;;;7.60;2.70;;;;;;;5.54;98.29;97243.11;177678;1256;46227;-86
2023/12/22 00:54:03;;;;;;;7.20;2.70;;;;;;;5.62;95.14;97231.21;177876;1256;58261;-83
2023/12/22 00:58:06;;;;;;;11.10;3.90;;;;;;;5.67;94.58;97249.83;177898;1260;46178;-85
2023/12/22 01:02:10;;;;;;;5.80;2.20;;;;;;;5.74;92.51;97248.56;178635;1256;44105;-85
2023/12/22 01:06:14;;;;;;;10.00;3.90;;;;;;;5.75;90.41;97257.67;178087;1256;46085;-86
2023/12/22 01:10:17;;;;;;;9.50;3.70;;;;;;;5.67;88.42;97273.30;177663;1256;44831;-85
2023/12/22 01:14:20;;;;;;;6.50;2.80;;;;;;;5.70;86.85;97272.57;179033;1257;59217;-84
2023/12/22 01:18:26;;;;;;;12.10;3.50;;;;;;;5.58;86.63;97293.29;178648;1257;46118;-85
2023/12/22 01:22:30;;;;;;;17.60;3.20;;;;;;;5.48;86.81;97295.58;177466;1257;45926;-85
2023/12/22 01:26:34;;;;;;;5.80;2.80;;;;;;;5.47;85.81;97271.12;178807;1256;44707;-83
2023/12/22 01:30:37;;;;;;;8.80;4.50;;;;;;;5.43;84.99;97279.47;178196;1257;45978;-86
2023/12/22 01:34:40;;;;;;;7.70;3.30;;;;;;;5.51;86.01;97285.42;178437;1257;60452;-86
2023/12/22 01:38:43;;;;;;;9.20;4.50;;;;;;;5.53;86.58;97288.55;178141;1256;46213;-84
2023/12/22 01:42:47;;;;;;;9.00;2.80;;;;;;;5.48;87.83;97281.23;177969;1255;46127;-84
2023/12/22 01:46:51;;;;;;;2.80;1.00;;;;;;;5.40;93.31;97282.73;177904;1256;46069;-85
2023/12/22 01:50:56;;;;;;;6.40;2.10;;;;;;;4.96;99.13;97307.27;178687;1256;46026;-86
2023/12/22 01:55:00;;;;;;;9.00;4.10;;;;;;;4.44;100.00;97314.79;177943;1256;57755;-85
2023/12/22 01:59:03;;;;;;;17.20;5.50;;;;;;;4.34;100.00;97327.59;178048;1256;46092;-85
2023/12/22 02:03:08;;;;;;;7.40;2.80;;;;;;;4.42;100.00;97336.77;178728;1257;44808;-86
2023/12/22 02:07:12;;;;;;;19.40;7.50;;;;;;;4.49;100.00;97384.66;178457;1256;46124;-82
2023/12/22 02:11:16;;;;;;;9.60;2.50;;;;;;;4.07;100.00;97335.56;178171;1258;46112;-82
2023/12/22 02:15:19;;;;;;;12.60;2.60;;;;;;;3.25;100.00;97326.04;178155;1255;59389;-83
2023/12/22 02:19:42;;;;;;;6.90;1.30;;;;;;;2.97;100.00;97291.31;177845;1256;45983;-79
2023/12/22 02:23:47;;;;;;;6.50;1.70;;;;;;;3.04;100.00;97296.29;177795;1256;46034;-83
2023/12/22 02:27:57;;;;;;;4.50;2.60;;;;;;;2.97;100.00;97329.42;178006;1256;46101;-83
2023/12/22 02:32:06;;;;;;;35.90;9.00;;;;;;;3.05;100.00;97355.97;178692;1256;46114;-84
2023/12/22 02:36:10;;;;;;;43.40;18.80;;;;;;;3.08;100.00;97339.27;178530;1256;58672;-84
2023/12/22 02:40:14;;;;;;;21.60;11.30;;;;;;;2.97;100.00;97333.13;177939;1256;45914;-84
2023/12/22 02:55:07;;;;;;;2.40;0.50;;;;;;;2.85;100.00;97333.17;175984;1283;580835;-84
2023/12/22 02:59:10;;;;;;;2.60;1.50;;;;;;;2.73;100.00;97340.34;176597;1267;205943;-82
2023/12/22 03:03:13;;;;;;;3.10;0.80;;;;;;;2.75;100.00;97338.78;179841;1260;46027;-84
2023/12/22 03:07:17;;;;;;;7.80;1.90;;;;;;;2.76;100.00;97345.83;178981;1254;46073;-83
2023/12/22 03:11:20;;;;;;;0.80;0.60;;;;;;;2.88;100.00;97335.93;178352;1254;46111;-83
2023/12/22 03:15:23;;;;;;;3.20;1.00;;;;;;;2.94;100.00;97329.55;178857;1254;45931;-84
2023/12/22 03:19:27;;;;;;;3.70;1.50;;;;;;;3.02;100.00;97331.64;178379;1254;58253;-83
2023/12/22 03:23:30;;;;;;;2.00;0.70;;;;;;;3.12;100.00;97338.34;179200;1253;46123;-82
2023/12/22 03:27:33;;;;;;;2.50;1.10;;;;;;;3.23;100.00;97332.89;177988;1254;45990;-83
2023/12/22 03:31:37;;;;;;;7.50;2.20;;;;;;;3.43;100.00;97331.43;179299;1254;46151;-84
2023/12/22 03:35:40;;;;;;;10.90;3.10;;;;;;;3.58;100.00;97337.84;178154;1257;46092;-84
2023/12/22 03:39:43;;;;;;;6.30;2.10;;;;;;;3.71;100.00;97337.47;179711;1254;57902;-84
2023/12/22 03:43:46;;;;;;;9.20;2.70;;;;;;;3.82;100.00;97329.98;179497;1254;45253;-84
2023/12/22 03:47:49;;;;;;;7.00;1.60;;;;;;;3.88;100.00;97336.95;178823;1254;45986;-83
2023/12/22 03:51:53;;;;;;;5.70;2.80;;;;;;;3.90;100.00;97337.80;180209;1254;45920;-84
2023/12/22 03:55:56;;;;;;;4.60;2.10;;;;;;;3.92;99.94;97343.93;179339;1257;45980;-82
2023/12/22 03:59:59;;;;;;;10.60;3.20;;;;;;;3.94;99.58;97356.55;179867;1254;59589;-84
2023/12/22 04:04:03;;;;;;;11.70;3.60;;;;;;;3.98;98.70;97362.31;179471;1254;46063;-83
2023/12/22 04:08:06;;;;;;;12.20;3.70;;;;;;;4.00;96.38;97364.20;178925;1254;46550;-83
2023/12/22 04:12:09;;;;;;;10.20;2.10;;;;;;;4.07;96.21;97358.42;179429;1254;46019;-83
2023/12/22 04:16:12;;;;;;;5.90;2.10;;;;;;;4.09;94.25;97352.70;178028;1254;45979;-84
2023/12/22 04:20:15;;;;;;;7.60;3.10;;;;;;;4.15;93.36;97360.76;178899;1254;59300;-83
2023/12/22 04:24:18;;;;;;;6.70;3.10;;;;;;;4.15;93.91;97378.10;179020;1257;46080;-85
2023/12/22 04:28:21;;;;;;;12.30;1.50;;;;;;;4.12;93.17;97357.02;180008;1254;46098;-84
2023/12/22 04:32:24;;;;;;;12.70;4.00;;;;;;;4.20;91.70;97356.61;179789;1254;44138;-84
2023/12/22 04:36:28;;;;;;;6.20;2.00;;;;;;;4.23;90.93;97364.12;179481;1254;45999;-83
2023/12/22 04:40:31;;;;;;;26.60;4.10;;;;;;;4.24;91.41;97370.73;181218;1254;58419;-84
2023/12/22 04:44:34;;;;;;;6.30;3.30;;;;;;;4.22;91.26;97368.65;181085;1253;43813;-83
2023/12/22 04:48:37;;;;;;;4.60;2.10;;;;;;;4.23;91.85;97373.07;179160;1254;45992;-84
2023/12/22 04:52:41;;;;;;;11.90;3.30;;;;;;;4.22;92.15;97380.73;181437;1254;43935;-84
2023/12/22 04:56:44;;;;;;;6.40;2.80;;;;;;;4.26;92.70;97378.80;178584;1256;45941;-82
2023/12/22 05:00:47;;;;;;;5.10;1.50;;;;;;;4.23;92.97;97367.50;179400;1254;58230;-83
2023/12/22 05:04:50;;;;;;;6.30;3.50;;;;;;;4.27;93.13;97358.81;178558;1254;46140;-84
2023/12/22 05:08:54;;;;;;;4.20;2.80;;;;;;;4.25;93.68;97357.42;180150;1253;46038;-84
2023/12/22 05:12:57;;;;;;;6.70;1.90;;;;;;;4.19;93.81;97351.90;178847;1254;45956;-83
2023/12/22 05:17:00;;;;;;;6.20;3.10;;;;;;;4.23;94.29;97367.53;178436;1253;45964;-84
2023/12/22 05:21:04;;;;;;;19.90;4.30;;;;;;;4.21;94.72;97371.86;177953;1257;59654;-83
2023/12/22 05:25:09;;;;;;;10.00;2.50;;;;;;;4.17;95.70;97367.12;178064;1253;45990;-84
2023/12/22 05:29:12;;;;;;;5.60;3.40;;;;;;;4.17;97.07;97356.91;179445;1254;46094;-83
2023/12/22 05:33:16;;;;;;;6.00;2.10;;;;;;;4.28;97.08;97363.31;178151;1253;46097;-83
2023/12/22 05:37:19;;;;;;;6.80;2.70;;;;;;;4.35;96.66;97373.48;177882;1254;46088;-83
2023/12/22 05:41:22;;;;;;;12.20;3.90;;;;;;;4.39;96.00;97380.92;178129;1256;59261;-81
2023/12/22 05:45:25;;;;;;;6.70;2.30;;;;;;;4.34;94.99;97376.55;179900;1253;43914;-84
2023/12/22 05:49:30;;;;;;;4.90;2.50;;;;;;;4.28;95.64;97372.26;178186;1257;46562;-82
2023/12/22 05:53:34;;;;;;;4.70;1.80;;;;;;;4.18;96.38;97353.80;178377;1254;46006;-83
2023/12/22 05:57:37;;;;;;;10.60;2.70;;;;;;;4.13;97.21;97361.43;178247;1254;46207;-83
2023/12/22 06:01:40;;;;;;;5.60;2.10;;;;;;;4.10;97.85;97367.05;179432;1253;59344;-82
2023/12/22 06:05:43;;;;;;;5.70;1.80;;;;;;;4.04;98.96;97373.92;178086;1257;46284;-84
2023/12/22 06:09:47;;;;;;;9.20;3.90;;;;;;;4.05;99.93;97372.41;179013;1254;46035;-82
2023/12/22 06:13:50;;;;;;;6.10;1.60;;;;;;;4.10;100.00;97368.71;178775;1254;46062;-86
2023/12/22 06:17:53;;;;;;;4.60;1.90;;;;;;;4.14;100.00;97375.56;178121;1257;46069;-84
2023/12/22 06:21:57;;;;;;;19.10;2.90;;;;;;;4.09;100.00;97377.46;178010;1254;59249;-83
2023/12/22 06:26:02;;;;;;;6.50;1.80;;;;;;;4.02;100.00;97381.11;178232;1254;45990;-84
2023/12/22 06:30:06;;;;;;;4.80;2.60;;;;;;;3.87;100.00;97376.34;178180;1253;46162;-83
2023/12/22 06:34:09;;;;;;;5.30;1.80;;;;;;;3.83;100.00;97379.14;179637;1253;46117;-84
2023/12/22 06:38:13;;;;;;;4.10;2.50;;;;;;;3.82;100.00;97374.93;178713;1254;46099;-83
2023/12/22 06:42:16;;;;;;;4.60;2.40;;;;;;;3.80;100.00;97386.73;179355;1254;59427;-84
2023/12/22 06:46:22;;;;;;;8.50;1.90;;;;;;;3.81;100.00;97381.47;177997;1254;44683;-84
2023/12/22 06:50:25;;;;;;;5.50;1.60;;;;;;;3.82;100.00;97387.91;179093;1254;43858;-84
2023/12/22 06:54:29;;;;;;;19.40;2.90;;;;;;;3.89;100.00;97396.84;178480;1257;46101;-83
2023/12/22 06:58:33;;;;;;;5.70;2.10;;;;;;;3.95;100.00;97407.64;178732;1254;46447;-84
2023/12/22 07:02:36;;;;;;;2.00;1.30;;;;;;;3.98;100.00;97406.63;177944;1254;58405;-84
2023/12/22 07:06:40;;;;;;;4.70;1.30;;;;;;;3.99;100.00;97417.91;178897;1256;45851;-84
2023/12/22 07:10:44;;;;;;;7.80;1.60;;;;;;;3.91;100.00;97407.03;177708;1254;46092;-82
2023/12/22 07:14:47;;;;;;;1.70;1.00;;;;;;;3.93;100.00;97407.45;178292;1254;46110;-84
2023/12/22 07:18:51;;;;;;;3.10;1.10;;;;;;;3.90;100.00;97406.70;178672;1254;44136;-84
2023/12/22 07:22:56;;;;;;;4.10;2.80;;;;;;;3.86;100.00;97406.04;178643;1254;59335;-84
2023/12/22 07:27:00;;;;;;;5.10;2.30;;;;;;;3.86;100.00;97404.28;178544;1254;46109;-84
2023/12/22 07:31:03;;;;;;;3.60;1.50;;;;;;;3.87;100.00;97395.81;178587;1254;46022;-83
2023/12/22 07:35:07;;;;;;;9.10;2.40;;;;;;;3.91;100.00;97386.45;179267;1254;46317;-84
2023/12/22 07:39:11;;;;;;;5.80;1.80;;;;;;;3.94;100.00;97379.33;178449;1253;46117;-84
2023/12/22 07:43:14;;;;;;;7.00;3.80;;;;;;;4.01;100.00;97394.09;179659;1254;59521;-82
2023/12/22 07:47:17;;;;;;;6.00;2.00;;;;;;;4.07;100.00;97398.87;178516;1254;46026;-83
2023/12/22 07:51:20;;;;;;;7.80;3.80;;;;;;;4.14;100.00;97400.11;178582;1254;45983;-85
2023/12/22 07:55:23;;;;;;;3.40;2.30;;;;;;;4.18;100.00;97409.98;179377;1254;46124;-83
2023/12/22 07:59:27;;;;;;;5.10;2.80;;;;;;;4.24;100.00;97411.05;179232;1254;44165;-84
2023/12/22 08:03:35;;;;;;;3.80;1.20;;;;;;;4.30;100.00;97407.60;178182;1254;59262;-84
2023/12/22 08:07:38;;;;;;;4.50;1.70;;;;;;;4.26;99.81;97407.48;178268;1254;46216;-82
2023/12/22 08:11:41;;;;;;;5.30;2.60;;;;;;;4.35;99.99;97434.17;178685;1257;46028;-84
2023/12/22 08:15:45;;;;;;;11.00;2.10;;;;;;;4.39;99.21;97414.12;179031;1254;45941;-84
2023/12/22 08:19:48;;;;;;;2.40;1.00;;;;;;;4.54;97.14;97420.17;179175;1254;46095;-84
2023/12/22 08:23:52;;;;;;;7.60;2.10;;;;;;;4.63;96.60;97415.71;179475;1254;60143;-83
2023/12/22 08:27:58;;;;;;;4.10;1.50;;;;;;;4.62;95.14;97418.80;178625;1254;44164;-83
2023/12/22 08:32:01;;;;;;;6.40;1.80;;;;;;;4.59;96.67;97428.04;179104;1254;46057;-84
2023/12/22 08:36:05;;;;;;;4.00;1.50;;;;;;;4.33;98.94;97451.56;180153;1254;46021;-84
2023/12/22 08:40:08;;;;;;;1.40;0.50;;;;;;;3.62;100.00;97461.52;178050;1254;46124;-83
2023/12/22 08:44:14;;;;;;;4.10;1.40;;;;;;;2.83;100.00;97435.77;178886;1254;58491;-83
2023/12/22 08:48:18;;;;;;;1.70;0.90;;;;;;;2.54;100.00;97460.38;178477;1256;44273;-84
2023/12/22 08:52:21;;;;;;;5.30;1.20;;;;;;;2.56;100.00;97467.58;179675;1254;44256;-84
2023/12/22 08:56:24;;;;;;;4.00;2.20;;;;;;;2.73;100.00;97464.05;178259;1254;45925;-84
2023/12/22 09:00:28;;;;;;;1.20;1.00;;;;;;;2.99;100.00;97477.41;178356;1254;45958;-83
2023/12/22 09:04:31;;;;;;;1.50;0.90;;;;;;;3.31;100.00;97470.17;177861;1254;58214;-85
2023/12/22 09:08:34;;;;;;;3.50;1.30;;;;;;;3.52;100.00;97471.84;180062;1254;45964;-82
2023/12/22 09:12:37;;;;;;;4.00;1.50;;;;;;;3.67;100.00;97470.89;179618;1254;46101;-84
2023/12/22 09:16:40;;;;;;;2.30;1.80;;;;;;;3.80;100.00;97485.17;179805;1253;46114;-83
2023/12/22 09:20:44;;;;;;;2.70;1.50;;;;;;;3.95;100.00;97483.73;178548;1254;45884;-84
2023/12/22 09:24:47;;;;;;;3.20;1.80;;;;;;;4.07;100.00;97471.17;179697;1254;58200;-84
2023/12/22 09:28:50;;;;;;;8.10;3.60;;;;;;;4.09;100.00;97455.52;178368;1254;46101;-84
2023/12/22 09:32:53;;;;;;;4.10;1.80;;;;;;;4.12;100.00;97452.75;178322;1257;46118;-84
2023/12/22 09:36:57;;;;;;;4.20;1.50;;;;;;;4.23;100.00;97463.58;179943;1254;45918;-84
2023/12/22 09:41:01;;;;;;;17.00;2.30;;;;;;;4.30;100.00;97443.63;179322;1254;43961;-84
2023/12/22 09:45:07;;;;;;;10.50;2.90;;;;;;;4.39;100.00;97459.03;179473;1254;59160;-83
2023/12/22 09:49:12;;;;;;;4.30;1.70;;;;;;;4.51;100.00;97457.81;179471;1254;46035;-83
2023/12/22 09:53:16;;;;;;;4.60;2.00;;;;;;;4.67;99.59;97461.35;178602;1254;46213;-83
2023/12/22 09:57:21;;;;;;;8.00;2.30;;;;;;;4.76;98.25;97462.28;179719;1254;46019;-83
2023/12/22 10:01:31;;;;;;;5.10;1.90;;;;;;;4.79;96.78;97450.73;179603;1254;46111;-81
2023/12/22 10:05:34;;;;;;;7.60;2.90;;;;;;;4.91;95.44;97435.33;179891;1254;58207;-82
2023/12/22 10:09:37;;;;;;;5.50;1.60;;;;;;;4.96;95.23;97444.58;177971;1256;46108;-82
2023/12/22 10:13:42;;;;;;;14.90;1.40;;;;;;;4.82;93.04;97424.47;178496;1257;46120;-82
2023/12/22 10:17:45;;;;;;;9.70;1.40;;;;;;;4.65;92.71;97421.69;179755;1256;46136;-81
2023/12/22 10:21:49;;;;;;;3.70;1.50;;;;;;;4.32;94.40;97438.70;179966;1254;44512;-81
2023/12/22 10:25:52;;;;;;;3.90;1.50;;;;;;;4.20;94.40;97422.68;178296;1255;57061;-81
2023/12/22 10:29:56;;;;;;;1.80;0.90;;;;;;;4.35;93.11;97437.27;177913;1254;45904;-81
2023/12/22 10:33:59;;;;;;;4.30;1.30;;;;;;;4.42;93.23;97429.58;179010;1254;46128;-82
2023/12/22 10:38:04;;;;;;;4.20;2.00;;;;;;;4.50;93.09;97444.23;179783;1255;46188;-82
2023/12/22 10:42:09;;;;;;;14.50;1.70;;;;;;;4.58;92.85;97457.45;178478;1254;46044;-81
2023/12/22 10:46:13;;;;;;;2.40;0.80;;;;;;;4.75;95.21;97480.52;179368;1256;58314;-83
2023/12/22 10:50:19;;;;;;;1.00;0.80;;;;;;;4.88;96.48;97496.59;179702;1254;45908;-83
2023/12/22 10:54:22;;;;;;;3.50;2.20;;;;;;;4.86;93.59;97508.70;178704;1254;45939;-82
2023/12/22 10:58:28;;;;;;;5.60;2.10;;;;;;;4.67;91.55;97513.25;179362;1256;46139;-82
2023/12/22 11:02:34;;;;;;;7.70;1.90;;;;;;;4.57;92.03;97517.95;178493;1255;45341;-82
2023/12/22 11:06:38;;;;;;;7.80;1.80;;;;;;;4.64;91.26;97513.08;179575;1254;59244;-82
2023/12/22 11:10:44;;;;;;;7.10;1.20;;;;;;;4.60;89.54;97509.60;178463;1256;45951;-83
2023/12/22 11:14:50;;;;;;;3.10;1.90;;;;;;;4.59;86.84;97505.97;178079;1254;46098;-83
2023/12/22 11:18:57;;;;;;;;;;;;;;;4.71;85.94;97482.01;179007;1253;45973;-83
2023/12/22 11:23:02;;;;;;;5.20;1.90;;;;;;;4.82;85.47;97508.09;178676;1254;45907;-83
2023/12/22 11:27:05;;;;;;;7.20;1.20;;;;;;;4.90;83.37;97484.45;180093;1254;58483;-83
2023/12/22 11:31:10;;;;;;;6.40;1.30;;;;;;;4.86;82.98;97491.29;178867;1254;45989;-81
2023/12/22 11:35:14;;;;;;;3.30;1.20;;;;;;;4.80;81.06;97505.48;177896;1254;46114;-83
2023/12/22 11:39:17;;;;;;;7.30;1.70;;;;;;;4.91;82.35;97485.52;179639;1254;43906;-84
2023/12/22 11:43:21;;;;;;;2.70;1.20;;;;;;;4.89;82.13;97499.30;178905;1254;45987;-84
2023/12/22 11:47:24;;;;;;;3.60;1.60;;;;;;;4.92;82.70;97499.15;179400;1254;59673;-82
2023/12/22 11:51:35;;;;;;;3.80;1.80;;;;;;;4.95;82.29;97484.58;179087;1254;45990;-83
2023/12/22 11:55:58;;;;;;;7.30;1.90;;;;;;;4.89;82.09;97485.73;180012;1254;44396;-84
2023/12/22 12:00:31;;;;;;;4.60;1.90;;;;;;;4.86;83.55;97488.19;178915;1254;46941;-84
2023/12/22 12:04:34;;;;;;;4.20;2.00;;;;;;;4.89;81.53;97485.96;180754;1254;44174;-83
2023/12/22 12:08:38;;;;;;;11.50;2.40;;;;;;;4.88;80.39;97493.60;179486;1254;59012;-84
2023/12/22 12:12:41;;;;;;;9.80;2.20;;;;;;;4.94;80.81;97494.58;178919;1254;46133;-84
2023/12/22 12:16:45;;;;;;;2.20;1.10;;;;;;;4.99;80.17;97483.16;178791;1254;46193;-83
2023/12/22 12:20:48;;;;;;;8.70;2.80;;;;;;;4.93;79.77;97499.27;178968;1254;46108;-83
2023/12/22 12:24:53;;;;;;;6.00;2.00;;;;;;;4.89;78.28;97510.83;179157;1254;45983;-83
2023/12/22 12:28:57;;;;;;;7.90;1.40;;;;;;;4.95;78.69;97501.96;179614;1254;59218;-83
2023/12/22 12:33:07;;;;;;;7.00;2.40;;;;;;;5.01;79.14;97514.23;179051;1257;45902;-85
2023/12/22 12:37:10;;;;;;;10.10;2.20;;;;;;;5.03;78.31;97509.77;178520;1254;46013;-84
2023/12/22 12:41:15;;;;;;;4.00;1.70;;;;;;;4.97;78.07;97513.52;178602;1254;46210;-84
2023/12/22 12:45:23;;;;;;;13.80;4.10;;;;;;;4.85;79.39;97490.40;178693;1254;46094;-82
2023/12/22 12:49:29;;;;;;;7.20;1.90;;;;;;;4.74;78.27;97479.02;179452;1254;59471;-84
2023/12/22 12:53:33;;;;;;;8.40;1.80;;;;;;;4.81;78.03;97485.48;178780;1257;46098;-84
2023/12/22 12:57:36;;;;;;;9.80;2.80;;;;;;;4.80;78.99;97489.33;178780;1254;46104;-85
2023/12/22 13:01:41;;;;;;;7.30;1.70;;;;;;;4.79;78.33;97486.26;179543;1254;45936;-84
2023/12/22 13:05:45;;;;;;;6.40;1.60;;;;;;;4.84;79.44;97496.94;179089;1254;46422;-84
2023/12/22 13:09:48;;;;;;;5.10;2.30;;;;;;;4.94;79.02;97484.55;178876;1254;60015;-82
2023/12/22 13:13:52;;;;;;;5.40;2.30;;;;;;;5.00;79.26;97482.75;178852;1254;44093;-84
2023/12/22 13:17:55;;;;;;;9.10;2.10;;;;;;;4.90;78.70;97488.77;178829;1254;45961;-83
2023/12/22 13:22:00;;;;;;;16.00;2.80;;;;;;;4.90;78.82;97505.67;178592;1255;46102;-84
2023/12/22 13:26:03;;;;;;;6.70;3.60;;;;;;;4.92;80.19;97492.99;178075;1254;44300;-83
2023/12/22 13:30:07;;;;;;;4.90;1.10;;;;;;;4.92;79.34;97499.98;179985;1253;58206;-81
2023/12/22 13:34:14;;;;;;;8.10;2.20;;;;;;;4.82;77.88;97494.84;178453;1254;46118;-81
2023/12/22 13:38:18;;;;;;;7.10;2.30;;;;;;;4.76;78.26;97499.17;179984;1255;45923;-81
2023/12/22 13:42:22;;;;;;;5.10;1.30;;;;;;;4.69;77.90;97500.46;179206;1254;46636;-82
2023/12/22 13:46:27;;;;;;;2.20;1.70;;;;;;;4.78;77.06;97486.51;179849;1254;44263;-82
2023/12/22 13:50:31;;;;;;;3.20;2.30;;;;;;;4.80;76.66;97496.30;178901;1254;59248;-83
2023/12/22 13:54:34;;;;;;;4.60;1.10;;;;;;;4.68;77.13;97504.08;179259;1256;45910;-80
2023/12/22 13:58:44;;;;;;;10.20;1.40;;;;;;;4.62;77.21;97481.34;181176;1256;44192;-82
2023/12/22 14:02:54;;;;;;;3.30;1.90;;;;;;;4.57;77.95;97488.23;179240;1256;45254;-82
2023/12/22 14:06:58;;;;;;;2.50;1.20;;;;;;;4.54;77.08;97479.52;181323;1256;43873;-82
2023/12/22 14:11:01;;;;;;;9.00;1.40;;;;;;;4.54;77.64;97498.80;179455;1255;59804;-83
2023/12/22 14:15:09;;;;;;;5.60;1.30;;;;;;;4.52;78.49;97510.23;180441;1255;44174;-82
2023/12/22 14:19:14;;;;;;;4.20;1.40;;;;;;;4.58;78.32;97517.81;178853;1255;45978;-82
2023/12/22 14:23:17;;;;;;;5.50;1.50;;;;;;;4.61;76.95;97497.69;178525;1257;45971;-82
2023/12/22 14:27:23;;;;;;;4.80;1.10;;;;;;;4.66;77.31;97494.59;178778;1255;46015;-82
2023/12/22 14:31:27;;;;;;;4.70;1.40;;;;;;;4.53;77.82;97515.73;179749;1256;58826;-81
2023/12/22 14:35:30;;;;;;;3.90;1.80;;;;;;;4.33;78.36;97527.75;181443;1256;44304;-82
2023/12/22 14:39:35;;;;;;;3.70;1.20;;;;;;;4.27;80.03;97543.08;179791;1256;46019;-81
2023/12/22 14:43:38;;;;;;;8.20;2.20;;;;;;;4.11;81.10;97536.29;180916;1256;44087;-81
2023/12/22 14:47:41;;;;;;;5.80;1.60;;;;;;;4.03;81.12;97529.38;179667;1257;46113;-80
2023/12/22 14:51:46;;;;;;;8.00;1.80;;;;;;;4.00;81.57;97555.33;181079;1259;59456;-81
2023/12/22 14:55:49;;;;;;;4.00;2.60;;;;;;;3.99;83.78;97553.80;179648;1254;252756;-80
2023/12/22 14:59:53;;;;;;;4.00;1.90;;;;;;;4.01;84.58;97576.61;179407;1254;46019;-80
2023/12/22 15:03:56;;;;;;;6.50;2.50;;;;;;;4.06;84.87;97566.66;179879;1254;46096;-80
2023/12/22 15:07:59;;;;;;;10.00;2.70;;;;;;;4.09;86.14;97568.61;179384;1254;46130;-81
2023/12/22 15:12:02;;;;;;;8.30;2.60;;;;;;;4.12;86.71;97574.13;180602;1254;60216;-80
2023/12/22 15:16:06;;;;;;;6.90;1.70;;;;;;;4.11;87.32;97574.27;177532;1254;46002;-89
2023/12/22 15:20:11;;;;;;;7.10;2.70;;;;;;;4.01;88.09;97580.42;179919;1254;46108;-88
2023/12/22 15:24:15;;;;;;;4.70;1.30;;;;;;;4.06;88.05;97586.09;179226;1253;45881;-85
2023/12/22 15:28:19;;;;;;;4.90;1.30;;;;;;;4.16;85.96;97585.67;180296;1256;46032;-85
2023/12/22 15:32:22;;;;;;;8.40;2.50;;;;;;;4.25;85.99;97592.67;181458;1253;59322;-84
2023/12/22 15:36:26;;;;;;;11.50;2.40;;;;;;;4.29;85.87;97590.59;180380;1254;45907;-85
2023/12/22 15:40:30;;;;;;;6.20;1.80;;;;;;;4.20;86.62;97590.45;179481;1254;45137;-86
2023/12/22 15:44:38;;;;;;;7.20;2.80;;;;;;;4.15;87.59;97591.44;179616;1254;46016;-85
2023/12/22 15:48:41;;;;;;;7.20;1.90;;;;;;;4.19;88.34;97595.80;180122;1254;43812;-83
2023/12/22 15:52:45;;;;;;;2.50;1.50;;;;;;;4.12;90.45;97588.88;179408;1254;60444;-84
2023/12/22 15:56:49;;;;;;;8.50;2.30;;;;;;;4.08;92.28;97590.34;180664;1256;44747;-82
2023/12/22 16:00:52;;;;;;;5.80;1.90;;;;;;;4.01;93.42;97579.37;179673;1256;45958;-84
2023/12/22 16:04:58;;;;;;;6.40;2.20;;;;;;;3.80;96.65;97608.29;181128;1253;44182;-84
2023/12/22 16:09:02;;;;;;;7.80;2.70;;;;;;;3.71;97.34;97602.65;181283;1254;45866;-84
2023/12/22 16:13:06;;;;;;;8.40;4.00;;;;;;;3.70;97.36;97606.77;180245;1253;58278;-86
2023/12/22 16:17:09;;;;;;;4.40;2.00;;;;;;;3.68;98.07;97612.88;180017;1254;46333;-84
2023/12/22 16:21:13;;;;;;;5.40;2.60;;;;;;;3.66;96.99;97608.52;179693;1254;46102;-87
2023/12/22 16:25:17;;;;;;;6.00;3.00;;;;;;;3.59;96.74;97618.85;180974;1253;46255;-88
2023/12/22 16:29:20;;;;;;;7.60;4.20;;;;;;;3.45;97.37;97631.92;179557;1253;46008;-86
2023/12/22 16:33:24;;;;;;;7.20;2.30;;;;;;;3.38;98.52;97643.27;181063;1254;59759;-86
2023/12/22 16:37:27;;;;;;;11.40;3.30;;;;;;;3.41;99.77;97635.64;180487;1254;46571;-86
2023/12/22 16:41:37;;;;;;;12.70;4.00;;;;;;;3.39;100.00;97641.36;179653;1254;46015;-85
2023/12/22 16:45:41;;;;;;;5.80;3.50;;;;;;;3.37;100.00;97635.69;180442;1253;44067;-85
2023/12/22 16:49:46;;;;;;;9.10;3.90;;;;;;;3.34;100.00;97632.82;179372;1254;46002;-84
2023/12/22 16:53:49;;;;;;;7.70;2.20;;;;;;;3.35;100.00;97639.73;180176;1254;62511;-85
2023/12/22 16:57:55;;;;;;;5.30;2.40;;;;;;;3.32;98.13;97640.15;179703;1254;46035;-85
2023/12/22 17:01:58;;;;;;;3.70;1.80;;;;;;;3.36;95.66;97645.02;180347;1253;43977;-84
2023/12/22 17:06:21;;;;;;;5.40;2.50;;;;;;;3.37;92.92;97638.11;180442;1253;46182;-84
2023/12/22 17:10:25;;;;;;;4.40;1.80;;;;;;;3.40;90.43;97640.31;179925;1253;46085;-84
2023/12/22 17:14:29;;;;;;;4.10;1.10;;;;;;;3.39;88.91;97640.56;179644;1254;57792;-90
2023/12/22 17:18:32;;;;;;;4.40;1.70;;;;;;;3.35;88.28;97641.77;179452;1253;45996;-88
2023/12/22 17:22:35;;;;;;;4.60;1.70;;;;;;;3.41;87.99;97642.27;179795;1257;45945;-87
2023/12/22 17:26:38;;;;;;;7.10;1.80;;;;;;;3.41;87.62;97635.60;179792;1256;46197;-84
2023/12/22 17:30:42;;;;;;;3.60;2.00;;;;;;;3.44;87.38;97655.11;179426;1254;45948;-82
2023/12/22 17:34:45;;;;;;;3.70;1.20;;;;;;;3.39;87.48;97666.46;178789;1254;57472;-84
2023/12/22 17:38:48;;;;;;;4.60;2.10;;;;;;;3.39;87.20;97664.55;178841;1254;45989;-86
2023/12/22 17:42:51;;;;;;;9.90;1.90;;;;;;;3.41;87.51;97670.98;179973;1257;46140;-82
2023/12/22 17:46:55;;;;;;;3.70;1.60;;;;;;;3.42;88.74;97671.09;179627;1253;46105;-86
2023/12/22 17:50:58;;;;;;;5.60;2.40;;;;;;;3.44;89.05;97675.31;180231;1254;45905;-86
2023/12/22 17:55:02;;;;;;;7.60;1.80;;;;;;;3.42;89.79;97679.14;179399;1254;60229;-85
2023/12/22 17:59:05;;;;;;;5.60;2.30;;;;;;;3.42;89.35;97675.84;179866;1253;44581;-88
2023/12/22 18:03:09;;;;;;;6.30;3.10;;;;;;;3.53;90.06;97683.42;179542;1253;46636;-85
2023/12/22 18:07:13;;;;;;;3.30;1.60;;;;;;;3.55;89.36;97679.30;179900;1256;44549;-86
2023/12/22 18:11:16;;;;;;;3.70;1.70;;;;;;;3.61;89.89;97682.27;179275;1257;46346;-84
2023/12/22 18:15:20;;;;;;;4.70;2.00;;;;;;;3.66;90.36;97680.95;180035;1257;60799;-85
2023/12/22 18:19:24;;;;;;;5.60;2.30;;;;;;;3.62;90.76;97693.98;180255;1254;45973;-86
2023/12/22 18:23:28;;;;;;;4.00;2.10;;;;;;;3.60;91.52;97690.08;180164;1257;44590;-85
2023/12/22 18:27:31;;;;;;;4.10;1.50;;;;;;;3.63;91.47;97684.40;179906;1254;46246;-85
2023/12/22 18:31:35;;;;;;;5.10;1.30;;;;;;;3.63;92.22;97689.34;179662;1254;44665;-82
2023/12/22 18:35:39;;;;;;;10.00;2.50;;;;;;;3.67;92.59;97690.65;179709;1254;57732;-84
2023/12/22 18:39:42;;;;;;;4.10;2.10;;;;;;;3.56;92.52;97688.71;180126;1256;46035;-84
2023/12/22 18:43:46;;;;;;;5.70;1.40;;;;;;;3.58;92.67;97676.64;179660;1255;45922;-84
2023/12/22 18:47:49;;;;;;;7.10;2.20;;;;;;;3.55;93.05;97679.34;179376;1254;46011;-83
2023/12/22 18:51:53;;;;;;;2.80;1.60;;;;;;;3.55;94.29;97687.23;179200;1254;45857;-79
2023/12/22 18:55:57;;;;;;;6.80;1.90;;;;;;;3.54;94.54;97689.58;179231;1255;59765;-84
2023/12/22 19:00:01;;;;;;;2.40;1.50;;;;;;;3.53;95.15;97678.45;179514;1254;46077;-82
2023/12/22 19:04:04;;;;;;;3.10;1.30;;;;;;;3.56;95.06;97678.89;179835;1256;46081;-84
2023/12/22 19:08:08;;;;;;;1.40;1.00;;;;;;;3.51;95.20;97676.00;179534;1254;46032;-80
2023/12/22 19:12:11;;;;;;;11.90;2.20;;;;;;;3.54;95.36;97665.04;180694;1254;45958;-85